createdAt,value
2018-05-17T00:02:04.400Z,22.93
2018-05-17T00:04:31.948Z,27.13
2018-05-17T00:06:59.531Z,23.60
2018-05-17T00:09:27.865Z,19.17
2018-05-17T00:11:55.495Z,27.97
2018-05-17T00:14:23.033Z,21.40
2018-05-17T00:16:51.387Z,21.13
2018-05-17T00:19:18.932Z,23.27
2018-05-17T00:21:46.576Z,21.90
2018-05-17T00:24:14.100Z,25.00
2018-05-17T00:26:41.675Z,22.50
2018-05-17T00:29:09.249Z,20.97
2018-05-17T00:31:36.843Z,24.20
2018-05-17T00:34:04.452Z,22.43
2018-05-17T00:36:32.036Z,22.60
2018-05-17T00:38:59.624Z,28.10
2018-05-17T00:41:27.992Z,21.13
2018-05-17T00:43:55.544Z,21.97
2018-05-17T00:46:23.104Z,23.43
2018-05-17T00:48:50.786Z,22.90
2018-05-17T00:51:18.372Z,22.13
2018-05-17T00:53:45.924Z,26.63
2018-05-17T00:56:14.237Z,25.57
2018-05-17T00:58:41.828Z,18.93
2018-05-17T01:01:09.371Z,26.53
2018-05-17T01:03:36.952Z,23.43
2018-05-17T01:06:04.511Z,27.37
2018-05-17T01:08:32.088Z,24.67
2018-05-17T01:10:59.631Z,25.43
2018-05-17T01:13:27.349Z,19.77
2018-05-17T01:15:54.964Z,21.97
2018-05-17T01:18:22.616Z,24.73
2018-05-17T01:20:50.174Z,25.97
2018-05-17T01:23:17.759Z,22.20
2018-05-17T01:25:45.323Z,24.10
2018-05-17T01:28:13.669Z,25.97
2018-05-17T01:30:41.251Z,18.73
2018-05-17T01:33:08.843Z,23.33
2018-05-17T01:35:36.584Z,23.60
2018-05-17T01:38:15.904Z,20.57
2018-05-17T01:40:43.468Z,30.90
2018-05-17T01:43:11.038Z,23.07
2018-05-17T01:45:38.612Z,24.03
2018-05-17T01:48:06.949Z,25.53
2018-05-17T01:50:34.527Z,20.83
2018-05-17T01:53:02.229Z,23.23
2018-05-17T01:55:29.820Z,18.30
2018-05-17T01:57:57.380Z,28.23
2018-05-17T02:00:24.959Z,21.70
2018-05-17T02:02:52.527Z,22.13
2018-05-17T02:05:20.140Z,22.80
2018-05-17T02:07:47.692Z,23.73
2018-05-17T02:10:15.253Z,24.47
2018-05-17T02:12:42.803Z,27.37
2018-05-17T02:15:11.176Z,25.77
2018-05-17T02:17:39.536Z,24.33
2018-05-17T02:20:07.127Z,31.53
2018-05-17T02:22:35.621Z,24.27
2018-05-17T02:25:03.195Z,23.00
2018-05-17T02:27:30.737Z,20.30
2018-05-17T02:29:58.349Z,21.43
2018-05-17T02:32:25.911Z,23.90
2018-05-17T02:34:53.475Z,26.20
2018-05-17T02:37:21.048Z,25.77
2018-05-17T02:39:49.372Z,26.13
2018-05-17T02:42:16.951Z,25.47
2018-05-17T02:44:44.526Z,22.33
2018-05-17T02:47:12.083Z,28.97
2018-05-17T02:49:39.638Z,21.83
2018-05-17T02:52:07.282Z,23.83
2018-05-17T02:54:34.831Z,24.43
2018-05-17T02:57:02.427Z,28.03
2018-05-17T02:59:30.002Z,32.07
2018-05-17T03:01:57.569Z,28.77
2018-05-17T03:04:25.996Z,26.80
2018-05-17T03:06:53.544Z,25.70
2018-05-17T03:09:21.129Z,25.93
2018-05-17T03:11:48.681Z,28.33
2018-05-17T03:14:16.251Z,27.37
2018-05-17T03:16:43.891Z,30.27
2018-05-17T03:19:11.524Z,28.23
2018-05-17T03:21:39.927Z,29.87
2018-05-17T03:24:07.496Z,26.17
2018-05-17T03:26:35.063Z,24.97
2018-05-17T03:29:02.828Z,26.00
2018-05-17T03:31:30.363Z,23.03
2018-05-17T03:33:57.935Z,27.10
2018-05-17T03:36:25.498Z,25.83
2018-05-17T03:38:53.082Z,28.17
2018-05-17T03:41:20.638Z,31.57
2018-05-17T03:43:48.195Z,23.87
2018-05-17T03:46:15.787Z,23.37
2018-05-17T03:48:43.323Z,24.63
2018-05-17T03:51:10.916Z,25.80
2018-05-17T03:53:39.316Z,31.37
2018-05-17T03:56:06.896Z,30.87
2018-05-17T03:58:34.449Z,22.87
2018-05-17T04:01:13.941Z,29.20
2018-05-17T04:03:53.379Z,26.50
2018-05-17T04:09:21.259Z,22.73
2018-05-17T04:11:48.879Z,22.80
2018-05-17T04:14:16.436Z,23.60
2018-05-17T04:16:44.108Z,25.50
2018-05-17T04:19:11.663Z,22.43
2018-05-17T04:21:39.228Z,27.83
2018-05-17T04:24:06.969Z,20.97
2018-05-17T04:26:34.519Z,26.83
2018-05-17T04:29:02.863Z,30.30
2018-05-17T04:31:30.432Z,25.30
2018-05-17T04:33:58.124Z,23.13
2018-05-17T04:36:26.467Z,25.83
2018-05-17T04:38:54.027Z,27.53
2018-05-17T04:41:21.583Z,28.43
2018-05-17T04:43:49.321Z,32.40
2018-05-17T04:46:16.876Z,29.27
2018-05-17T04:48:44.447Z,25.53
2018-05-17T04:51:11.988Z,25.40
2018-05-17T04:53:39.616Z,21.53
2018-05-17T04:56:07.961Z,26.73
2018-05-17T04:58:35.635Z,31.40
2018-05-17T05:01:03.221Z,29.30
2018-05-17T05:03:31.545Z,30.63
2018-05-17T05:05:59.119Z,25.17
2018-05-17T05:08:26.695Z,24.73
2018-05-17T05:10:54.296Z,30.27
2018-05-17T05:13:21.866Z,32.57
2018-05-17T05:15:49.418Z,29.43
2018-05-17T05:18:16.979Z,43.43
2018-05-17T05:20:44.575Z,41.23
2018-05-17T05:23:12.159Z,28.77
2018-05-17T05:25:39.876Z,38.00
2018-05-17T05:28:07.446Z,34.97
2018-05-17T05:30:35.052Z,25.97
2018-05-17T05:33:02.655Z,36.90
2018-05-17T05:35:30.292Z,31.37
2018-05-17T05:37:58.861Z,42.90
2018-05-17T05:40:26.403Z,41.80
2018-05-17T05:42:54.012Z,40.33
2018-05-17T05:45:21.571Z,48.57
2018-05-17T05:47:49.145Z,44.60
2018-05-17T05:50:16.710Z,40.40
2018-05-17T05:52:44.297Z,39.33
2018-05-17T05:55:11.856Z,42.73
2018-05-17T05:57:39.444Z,43.73
2018-05-17T06:00:07.909Z,40.10
2018-05-17T06:02:35.499Z,34.27
2018-05-17T06:05:03.842Z,38.10
2018-05-17T06:07:32.097Z,35.60
2018-05-17T06:09:59.668Z,31.93
2018-05-17T06:12:27.308Z,30.27
2018-05-17T06:14:54.878Z,43.00
2018-05-17T06:17:22.565Z,38.97
2018-05-17T06:19:50.064Z,43.43
2018-05-17T06:22:17.639Z,48.13
2018-05-17T06:24:45.240Z,48.50
2018-05-17T06:27:12.811Z,48.70
2018-05-17T06:29:40.367Z,51.50
2018-05-17T06:32:07.917Z,54.70
2018-05-17T06:34:35.496Z,54.10
2018-05-17T06:37:03.073Z,54.77
2018-05-17T06:39:31.400Z,44.57
2018-05-17T06:41:59.068Z,50.63
2018-05-17T06:44:26.664Z,47.93
2018-05-17T06:46:54.229Z,49.67
2018-05-17T06:49:22.639Z,50.13
2018-05-17T06:51:50.201Z,50.33
2018-05-17T06:54:17.787Z,46.50
2018-05-17T06:56:45.358Z,46.83
2018-05-17T06:59:12.923Z,45.97
2018-05-17T07:01:40.496Z,45.03
2018-05-17T07:04:08.102Z,44.07
2018-05-17T07:06:35.643Z,48.07
2018-05-17T07:09:03.215Z,50.87
2018-05-17T07:11:30.786Z,46.00
2018-05-17T07:13:58.472Z,35.97
2018-05-17T07:16:26.067Z,52.93
2018-05-17T07:18:54.427Z,41.57
2018-05-17T07:21:22.040Z,50.87
2018-05-17T07:23:49.659Z,40.27
2018-05-17T07:26:17.379Z,38.17
2018-05-17T07:28:44.948Z,43.47
2018-05-17T07:31:12.535Z,41.83
2018-05-17T07:33:40.126Z,44.90
2018-05-17T07:36:08.458Z,41.90
2018-05-17T07:38:36.008Z,45.43
2018-05-17T07:41:03.599Z,46.30
2018-05-17T07:43:31.255Z,40.40
2018-05-17T07:45:58.804Z,46.00
2018-05-17T07:48:26.407Z,43.13
2018-05-17T07:50:55.618Z,44.30
2018-05-17T07:53:24.008Z,46.70
2018-05-17T07:55:51.811Z,47.40
2018-05-17T07:58:19.484Z,47.10
2018-05-17T08:00:47.064Z,44.70
2018-05-17T08:03:15.492Z,43.57
2018-05-17T08:05:43.056Z,40.70
2018-05-17T08:08:10.677Z,42.63
2018-05-17T08:10:39.087Z,48.27
2018-05-17T08:13:06.688Z,42.90
2018-05-17T08:15:34.257Z,48.77
2018-05-17T08:18:01.862Z,38.83
2018-05-17T08:20:29.455Z,42.60
2018-05-17T08:22:57.032Z,41.47
2018-05-17T08:25:24.649Z,44.17
2018-05-17T08:27:52.253Z,46.47
2018-05-17T08:30:21.316Z,46.97
2018-05-17T08:32:48.975Z,39.93
2018-05-17T08:35:16.528Z,37.47
2018-05-17T08:37:44.220Z,40.57
2018-05-17T08:40:11.784Z,39.43
2018-05-17T08:42:40.167Z,37.10
2018-05-17T08:45:07.727Z,33.07
2018-05-17T08:47:36.067Z,31.30
2018-05-17T08:50:03.768Z,42.37
2018-05-17T08:52:31.324Z,35.90
2018-05-17T08:54:58.929Z,36.50
2018-05-17T08:57:27.268Z,37.00
2018-05-17T08:59:56.346Z,29.10
2018-05-17T09:02:23.915Z,29.57
2018-05-17T09:04:51.533Z,26.53
2018-05-17T09:07:19.112Z,29.50
2018-05-17T09:09:46.688Z,30.07
2018-05-17T09:12:15.897Z,30.07
2018-05-17T09:14:43.477Z,32.40
2018-05-17T09:17:11.116Z,29.73
2018-05-17T09:19:38.685Z,34.50
2018-05-17T09:22:06.408Z,35.30
2018-05-17T09:24:34.045Z,37.57
2018-05-17T09:27:02.371Z,36.00
2018-05-17T09:29:29.948Z,37.40
2018-05-17T09:31:57.512Z,37.87
2018-05-17T09:34:28.588Z,29.10
2018-05-17T09:36:56.915Z,28.50
2018-05-17T09:39:24.575Z,28.83
2018-05-17T09:41:52.159Z,31.23
2018-05-17T09:44:19.720Z,34.97
2018-05-17T09:46:47.375Z,33.73
2018-05-17T09:49:14.980Z,30.90
2018-05-17T09:51:42.604Z,35.40
2018-05-17T09:54:10.156Z,36.67
2018-05-17T09:56:37.740Z,36.53
2018-05-17T09:59:06.080Z,38.47
2018-05-17T10:01:33.655Z,32.20
2018-05-17T10:04:01.228Z,31.50
2018-05-17T10:06:28.956Z,30.13
2018-05-17T10:08:56.592Z,35.57
2018-05-17T10:11:24.103Z,32.47
2018-05-17T10:13:51.660Z,29.67
2018-05-17T10:16:23.032Z,33.00
2018-05-17T10:18:51.457Z,23.77
2018-05-17T10:21:20.477Z,24.27
2018-05-17T10:23:48.041Z,30.17
2018-05-17T10:26:17.136Z,23.37
2018-05-17T10:28:44.688Z,25.90
2018-05-17T10:31:12.248Z,27.50
2018-05-17T10:33:39.817Z,30.60
2018-05-17T10:36:07.368Z,25.67
2018-05-17T10:38:34.923Z,22.53
2018-05-17T10:41:04.023Z,27.60
2018-05-17T10:43:31.573Z,26.13
2018-05-17T10:45:59.316Z,20.27
2018-05-17T10:48:26.880Z,26.97
2018-05-17T10:50:54.443Z,32.17
2018-05-17T10:53:22.201Z,24.60
2018-05-17T10:55:49.769Z,19.97
2018-05-17T10:58:17.340Z,23.83
2018-05-17T11:00:48.754Z,23.77
2018-05-17T11:03:16.328Z,27.90
2018-05-17T11:05:43.868Z,17.20
2018-05-17T11:08:11.429Z,25.73
2018-05-17T11:10:38.987Z,26.30
2018-05-17T11:13:07.433Z,24.77
2018-05-17T11:15:34.991Z,22.23
2018-05-17T11:18:06.568Z,25.20
2018-05-17T11:20:34.936Z,21.97
2018-05-17T11:23:02.590Z,24.07
2018-05-17T11:25:30.139Z,19.73
2018-05-17T11:27:57.715Z,23.67
2018-05-17T11:30:25.275Z,20.53
2018-05-17T11:32:52.875Z,18.27
2018-05-17T11:35:20.445Z,20.27
2018-05-17T11:37:48.004Z,23.87
2018-05-17T11:40:15.578Z,19.80
2018-05-17T11:42:43.166Z,18.83
2018-05-17T11:45:10.721Z,23.30
2018-05-17T11:47:38.551Z,21.80
2018-05-17T11:50:06.088Z,19.47
2018-05-17T11:52:34.432Z,22.33
2018-05-17T11:55:02.261Z,21.63
2018-05-17T11:57:30.045Z,20.23
2018-05-17T11:59:57.602Z,25.90
2018-05-17T12:02:25.214Z,22.33
2018-05-17T12:04:52.760Z,28.40
2018-05-17T12:07:21.262Z,20.40
2018-05-17T12:09:48.723Z,24.07
2018-05-17T12:12:16.304Z,21.50
2018-05-17T12:14:43.964Z,16.67
2018-05-17T12:17:11.563Z,24.10
2018-05-17T12:19:39.162Z,20.77
2018-05-17T12:22:07.631Z,22.40
2018-05-17T12:24:36.043Z,21.53
2018-05-17T12:27:03.612Z,22.10
2018-05-17T12:29:31.373Z,19.37
2018-05-17T12:31:59.017Z,22.37
2018-05-17T12:34:27.368Z,23.67
2018-05-17T12:36:54.960Z,23.83
2018-05-17T12:39:22.711Z,18.60
2018-05-17T12:41:51.043Z,21.43
2018-05-17T12:44:18.687Z,22.30
2018-05-17T12:46:46.238Z,24.07
2018-05-17T12:49:13.823Z,17.13
2018-05-17T12:51:41.365Z,18.30
2018-05-17T12:54:09.003Z,19.17
2018-05-17T12:56:36.579Z,23.43
2018-05-17T12:59:04.155Z,19.70
2018-05-17T13:01:31.729Z,25.90
2018-05-17T13:03:59.347Z,23.00
2018-05-17T13:06:26.920Z,19.53
2018-05-17T13:08:54.472Z,16.60
2018-05-17T13:11:22.056Z,19.90
2018-05-17T13:13:49.651Z,19.63
2018-05-17T13:16:17.311Z,22.77
2018-05-17T13:18:44.948Z,26.60
2018-05-17T13:21:12.527Z,18.77
2018-05-17T13:23:40.142Z,26.80
2018-05-17T13:26:07.796Z,20.90
2018-05-17T13:28:35.380Z,18.33
2018-05-17T13:31:02.960Z,24.20
2018-05-17T13:33:30.560Z,20.53
2018-05-17T13:35:58.911Z,23.80
2018-05-17T13:38:26.510Z,18.50
2018-05-17T13:40:54.095Z,23.17
2018-05-17T13:43:21.668Z,22.70
2018-05-17T13:45:49.253Z,20.63
2018-05-17T13:48:17.288Z,17.33
2018-05-17T13:50:44.844Z,23.50
2018-05-17T13:53:12.413Z,18.90
2018-05-17T13:55:40.455Z,19.27
2018-05-17T13:58:08.040Z,19.00
2018-05-17T14:00:35.669Z,14.80
2018-05-17T14:03:03.971Z,15.73
2018-05-17T14:05:31.546Z,19.50
2018-05-17T14:07:59.112Z,18.63
2018-05-17T14:10:26.668Z,15.87
2018-05-17T14:12:54.313Z,20.40
2018-05-17T14:15:21.930Z,16.37
2018-05-17T14:17:49.500Z,15.40
2018-05-17T14:20:17.834Z,18.13
2018-05-17T14:22:45.386Z,22.10
2018-05-17T14:25:12.949Z,23.17
2018-05-17T14:27:40.524Z,20.10
2018-05-17T14:30:08.085Z,18.43
2018-05-17T14:32:35.663Z,17.77
2018-05-17T14:35:03.224Z,20.67
2018-05-17T14:37:30.857Z,23.50
2018-05-17T14:39:58.461Z,19.47
2018-05-17T14:42:26.835Z,16.70
2018-05-17T14:44:55.151Z,20.23
2018-05-17T14:47:22.775Z,20.50
2018-05-17T14:49:51.117Z,20.63
2018-05-17T14:52:18.687Z,18.70
2018-05-17T14:54:46.285Z,17.80
2018-05-17T14:57:14.613Z,18.47
2018-05-17T14:59:42.172Z,18.60
2018-05-17T15:02:09.736Z,15.10
2018-05-17T15:04:37.416Z,14.37
2018-05-17T15:07:05.049Z,16.77
2018-05-17T15:09:32.617Z,16.23
2018-05-17T15:12:00.196Z,13.50
2018-05-17T15:14:27.812Z,16.17
2018-05-17T15:16:55.383Z,19.97
2018-05-17T15:19:22.943Z,15.00
2018-05-17T15:21:50.513Z,15.40
2018-05-17T15:24:18.157Z,22.17
2018-05-17T15:26:45.965Z,18.63
2018-05-17T15:29:13.539Z,15.63
2018-05-17T15:31:42.051Z,16.90
2018-05-17T15:34:09.599Z,24.10
2018-05-17T15:36:37.315Z,18.43
2018-05-17T15:39:05.768Z,17.90
2018-05-17T15:41:33.354Z,18.03
2018-05-17T15:44:00.917Z,15.83
2018-05-17T15:46:28.489Z,17.70
2018-05-17T15:48:56.382Z,16.37
2018-05-17T15:51:24.727Z,18.77
2018-05-17T15:53:52.324Z,17.53
2018-05-17T15:56:20.673Z,16.43
2018-05-17T15:58:48.219Z,18.33
2018-05-17T16:01:15.932Z,17.83
2018-05-17T16:03:44.255Z,19.50
2018-05-17T16:06:11.937Z,17.77
2018-05-17T16:08:39.504Z,14.00
2018-05-17T16:11:07.072Z,15.77
2018-05-17T16:13:34.633Z,21.50
2018-05-17T16:16:02.211Z,13.03
2018-05-17T16:18:30.531Z,19.90
2018-05-17T16:20:58.099Z,16.27
2018-05-17T16:23:25.679Z,16.30
2018-05-17T16:25:54.011Z,20.57
2018-05-17T16:28:21.624Z,25.10
2018-05-17T16:30:49.192Z,23.03
2018-05-17T16:33:16.778Z,22.53
2018-05-17T16:35:44.379Z,20.80
2018-05-17T16:38:11.952Z,19.60
2018-05-17T16:40:39.508Z,17.93
2018-05-17T16:43:07.104Z,24.17
2018-05-17T16:45:35.487Z,17.13
2018-05-17T16:48:03.957Z,20.80
2018-05-17T16:50:31.554Z,23.90
2018-05-17T16:52:59.241Z,20.50
2018-05-17T16:55:26.711Z,22.80
2018-05-17T16:57:54.284Z,23.20
2018-05-17T17:00:21.864Z,20.93
2018-05-17T17:02:50.232Z,18.63
2018-05-17T17:05:17.785Z,22.03
2018-05-17T17:07:45.399Z,20.30
2018-05-17T17:10:12.972Z,20.20
2018-05-17T17:12:40.519Z,20.97
2018-05-17T17:15:08.117Z,19.83
2018-05-17T17:17:35.780Z,19.30
2018-05-17T17:20:03.451Z,21.60
2018-05-17T17:22:31.036Z,19.00
2018-05-17T17:24:59.395Z,19.40
2018-05-17T17:27:26.951Z,19.23
2018-05-17T17:29:54.528Z,24.43
2018-05-17T17:32:22.888Z,23.93
2018-05-17T17:34:50.462Z,25.73
2018-05-17T17:37:18.065Z,21.60
2018-05-17T17:39:46.483Z,15.50
2018-05-17T17:42:14.057Z,21.87
2018-05-17T17:44:41.649Z,19.83
2018-05-17T17:47:09.999Z,20.00
2018-05-17T17:49:37.564Z,18.43
2018-05-17T17:52:05.915Z,22.53
2018-05-17T17:54:33.487Z,21.60
2018-05-17T17:57:01.043Z,20.43
2018-05-17T17:59:28.616Z,27.10
2018-05-17T18:01:56.189Z,24.27
2018-05-17T18:04:24.652Z,23.17
2018-05-17T18:06:52.207Z,18.70
2018-05-17T18:09:19.797Z,18.83
2018-05-17T18:11:47.452Z,20.50
2018-05-17T18:14:15.116Z,22.93
2018-05-17T18:16:43.442Z,20.57
2018-05-17T18:19:11.088Z,23.20
2018-05-17T18:21:38.631Z,19.37
2018-05-17T18:24:06.244Z,22.33
2018-05-17T18:26:33.792Z,23.67
2018-05-17T18:29:01.356Z,21.90
2018-05-17T18:31:28.924Z,24.77
2018-05-17T18:33:56.623Z,20.23
2018-05-17T18:36:24.135Z,18.20
2018-05-17T18:38:51.872Z,25.93
2018-05-17T18:41:19.443Z,18.37
2018-05-17T18:43:47.032Z,21.67
2018-05-17T18:46:14.588Z,23.07
2018-05-17T18:48:42.209Z,20.60
2018-05-17T18:51:09.809Z,21.77
2018-05-17T18:53:37.384Z,24.70
2018-05-17T18:56:04.999Z,24.80
2018-05-17T18:58:33.289Z,18.73
2018-05-17T19:01:00.881Z,21.63
2018-05-17T19:03:28.444Z,17.80
2018-05-17T19:05:56.026Z,23.07
2018-05-17T19:08:24.389Z,23.53
2018-05-17T19:10:51.962Z,18.27
2018-05-17T19:13:20.371Z,22.20
2018-05-17T19:15:47.948Z,21.67
2018-05-17T19:18:15.502Z,19.63
2018-05-17T19:20:43.204Z,21.57
2018-05-17T19:23:10.777Z,23.80
2018-05-17T19:25:38.385Z,30.87
2018-05-17T19:28:06.023Z,27.73
2018-05-17T19:30:33.597Z,22.77
2018-05-17T19:33:01.211Z,25.13
2018-05-17T19:35:28.847Z,25.90
2018-05-17T19:37:56.448Z,20.00
2018-05-17T19:40:24.774Z,26.97
2018-05-17T19:42:52.365Z,21.30
2018-05-17T19:45:19.957Z,24.00
2018-05-17T19:47:47.497Z,23.70
2018-05-17T19:50:15.078Z,24.80
2018-05-17T19:52:43.442Z,24.20
2018-05-17T19:55:11.764Z,23.90
2018-05-17T19:57:39.383Z,26.47
2018-05-17T20:00:07.741Z,25.70
2018-05-17T20:02:35.340Z,21.17
2018-05-17T20:05:03.753Z,25.57
2018-05-17T20:07:31.329Z,21.73
2018-05-17T20:09:58.904Z,19.97
2018-05-17T20:12:26.463Z,24.03
2018-05-17T20:14:54.105Z,17.20
2018-05-17T20:17:21.679Z,21.83
2018-05-17T20:19:49.272Z,35.50
2018-05-17T20:22:17.605Z,27.83
2018-05-17T20:24:45.201Z,21.47
2018-05-17T20:27:13.553Z,20.27
2018-05-17T20:29:41.172Z,24.87
2018-05-17T20:32:08.736Z,22.17
2018-05-17T20:34:36.309Z,28.40
2018-05-17T20:37:04.029Z,28.20
2018-05-17T20:39:32.442Z,24.23
2018-05-17T20:42:00.078Z,26.17
2018-05-17T20:44:28.484Z,21.27
2018-05-17T20:46:56.084Z,26.13
2018-05-17T20:49:23.627Z,23.97
2018-05-17T20:51:51.277Z,24.63
2018-05-17T20:54:18.973Z,25.70
2018-05-17T20:56:46.552Z,29.17
2018-05-17T20:59:14.101Z,26.73
2018-05-17T21:01:41.691Z,21.00
2018-05-17T21:04:10.009Z,18.60
2018-05-17T21:06:37.592Z,31.57
2018-05-17T21:09:05.896Z,25.60
2018-05-17T21:11:34.223Z,25.80
2018-05-17T21:14:01.780Z,22.83
2018-05-17T21:16:29.377Z,25.27
2018-05-17T21:18:57.069Z,26.77
2018-05-17T21:21:25.420Z,27.33
2018-05-17T21:23:52.984Z,23.90
2018-05-17T21:26:20.542Z,31.80
2018-05-17T21:28:48.127Z,23.67
2018-05-17T21:31:15.680Z,27.63
2018-05-17T21:33:44.029Z,23.87
2018-05-17T21:36:11.603Z,26.87
2018-05-17T21:38:39.297Z,27.47
2018-05-17T21:41:06.852Z,24.53
2018-05-17T21:43:35.192Z,28.13
2018-05-17T21:46:02.774Z,23.80
2018-05-17T21:48:31.081Z,26.67
2018-05-17T21:50:58.683Z,23.83
2018-05-17T21:53:27.771Z,22.93
2018-05-17T21:55:55.317Z,25.23
2018-05-17T21:58:22.898Z,21.27
2018-05-17T22:00:50.461Z,33.17
2018-05-17T22:03:18.169Z,26.20
2018-05-17T22:05:46.497Z,26.93
2018-05-17T22:08:14.760Z,23.90
2018-05-17T22:10:43.209Z,23.43
2018-05-17T22:13:10.763Z,29.10
2018-05-17T22:15:38.336Z,28.00
2018-05-17T22:18:05.902Z,21.97
2018-05-17T22:20:33.472Z,29.77
2018-05-17T22:23:01.034Z,23.67
2018-05-17T22:25:28.596Z,27.50
2018-05-17T22:27:56.158Z,30.17
2018-05-17T22:30:23.723Z,24.00
2018-05-17T22:32:51.293Z,27.60
2018-05-17T22:35:18.945Z,27.10
2018-05-17T22:37:46.512Z,30.63
2018-05-17T22:40:14.103Z,25.53
2018-05-17T22:42:42.431Z,21.90
2018-05-17T22:45:10.004Z,24.60
2018-05-17T22:47:37.571Z,24.87
2018-05-17T22:50:05.153Z,19.93
2018-05-17T22:52:32.762Z,24.27
2018-05-17T22:55:00.345Z,26.23
2018-05-17T22:57:39.594Z,23.17
2018-05-17T23:00:07.127Z,26.60
2018-05-17T23:02:34.795Z,21.80
2018-05-17T23:05:02.351Z,26.60
2018-05-17T23:07:29.934Z,24.23
2018-05-17T23:09:57.495Z,19.97
2018-05-17T23:12:25.059Z,24.17
2018-05-17T23:14:52.623Z,24.50
2018-05-17T23:17:20.193Z,27.00
2018-05-17T23:19:47.786Z,31.07
2018-05-17T23:22:27.207Z,29.97
2018-05-17T23:24:55.533Z,26.03
2018-05-17T23:27:23.100Z,21.87
2018-05-17T23:29:50.677Z,21.50
2018-05-17T23:32:18.236Z,23.63
2018-05-17T23:34:47.320Z,28.00
2018-05-17T23:37:20.669Z,32.80
2018-05-17T23:39:48.293Z,33.90
2018-05-17T23:42:15.862Z,30.10
2018-05-17T23:44:43.444Z,24.93
2018-05-17T23:47:11.852Z,31.43
2018-05-17T23:49:39.425Z,29.27
2018-05-17T23:52:06.988Z,30.70
2018-05-17T23:54:34.565Z,33.60
2018-05-17T23:57:02.136Z,30.73
2018-05-17T23:59:29.766Z,24.03
